Time;durP1;ratioP1;P1;durP2;ratioP2;P2;SDS_P1;SDS_P2;PMS_P1;PMS_P2;Temp;Humidity;BMP_temperature;BMP_pressure;BME280_temperature;BME280_humidity;BME280_pressure;Samples;Min_cycle;Max_cycle;Signal;HPM_P1;HPM_P2
2021/11/12 00:02:11;;;;;;;18.70;8.80;;;1.70;99.90;;;;;;4941662;29;20034;-92
2021/11/12 00:11:50;;;;;;;13.73;7.00;;;1.70;99.90;;;;;;4943402;29;20027;-90
2021/11/12 00:13:19;;;;;;;14.07;7.13;;;1.90;99.90;;;;;;4951509;29;20205;-90
2021/11/12 00:15:52;;;;;;;15.93;7.23;;;1.80;99.90;;;;;;4923420;29;20028;-91
2021/11/12 00:18:20;;;;;;;16.27;7.80;;;1.80;99.90;;;;;;4923961;29;20051;-91
2021/11/12 00:20:47;;;;;;;15.67;7.63;;;1.80;99.90;;;;;;4934490;29;20019;-91
2021/11/12 00:23:14;;;;;;;14.17;8.03;;;1.90;99.90;;;;;;4941692;29;20423;-90
2021/11/12 00:25:42;;;;;;;14.10;7.67;;;1.90;99.90;;;;;;4943129;29;20087;-90
2021/11/12 00:28:12;;;;;;;15.90;7.57;;;1.90;99.90;;;;;;4959844;29;20035;-91
2021/11/12 00:38:39;;;;;;;32.73;8.53;;;1.80;99.90;;;;;;4941315;29;20518;-90
2021/11/12 00:41:35;;;;;;;27.83;7.53;;;1.70;99.90;;;;;;4932963;29;20031;-91
2021/11/12 00:46:57;;;;;;;14.60;7.27;;;1.50;99.90;;;;;;4939735;29;20023;-91
2021/11/12 00:49:27;;;;;;;15.83;7.27;;;1.40;99.90;;;;;;4922534;29;20429;-91
2021/11/12 00:52:14;;;;;;;14.47;7.50;;;1.50;99.90;;;;;;4950342;29;20027;-91
2021/11/12 00:54:42;;;;;;;21.00;7.23;;;1.50;99.90;;;;;;4960924;28;20046;-90
2021/11/12 00:57:08;;;;;;;25.63;7.60;;;1.50;99.90;;;;;;4960597;29;20027;-91
2021/11/12 00:59:34;;;;;;;14.20;7.67;;;1.50;99.90;;;;;;4942968;29;20027;-91
2021/11/12 01:02:05;;;;;;;28.37;7.47;;;1.60;99.90;;;;;;4941685;29;20047;-92
2021/11/12 01:04:31;;;;;;;37.10;7.70;;;1.60;99.90;;;;;;4941450;29;20043;-91
2021/11/12 01:06:57;;;;;;;15.13;6.77;;;1.60;99.90;;;;;;4943473;29;20106;-91
2021/11/12 01:09:23;;;;;;;24.47;7.70;;;1.70;99.90;;;;;;4936551;29;20055;-91
2021/11/12 01:11:50;;;;;;;20.83;8.00;;;1.60;99.90;;;;;;4922868;29;20058;-91
2021/11/12 01:14:21;;;;;;;13.87;7.23;;;1.60;99.90;;;;;;4924101;29;20035;-91
2021/11/12 01:16:48;;;;;;;17.37;7.03;;;1.50;99.90;;;;;;4940302;29;20460;-91
2021/11/12 01:19:14;;;;;;;16.43;7.93;;;1.50;99.90;;;;;;4942278;29;20042;-91
2021/11/12 01:21:44;;;;;;;20.00;7.70;;;1.50;99.90;;;;;;4938108;29;20038;-91
2021/11/12 01:24:10;;;;;;;16.03;7.80;;;1.60;99.90;;;;;;4958029;29;20027;-91
2021/11/12 01:26:36;;;;;;;22.63;7.10;;;1.60;99.90;;;;;;4940301;29;20091;-91
2021/11/12 01:29:03;;;;;;;14.47;6.33;;;1.40;99.90;;;;;;4941019;29;20051;-91
2021/11/12 01:31:30;;;;;;;29.40;7.23;;;1.30;99.90;;;;;;4925936;29;20058;-91
2021/11/12 01:34:10;;;;;;;28.60;7.23;;;1.30;99.90;;;;;;4923009;29;20106;-91
2021/11/12 01:36:42;;;;;;;43.30;6.73;;;1.20;99.90;;;;;;4922764;29;20059;-91
2021/11/12 01:39:17;;;;;;;13.98;5.10;;;1.10;99.90;;;;;;4924026;29;20035;-91
2021/11/12 01:41:49;;;;;;;24.80;6.80;;;1.20;99.90;;;;;;4940951;29;20041;-91
2021/11/12 01:44:17;;;;;;;15.43;6.65;;;1.20;99.90;;;;;;4941610;29;20022;-91
2021/11/12 01:49:30;;;;;;;17.47;6.73;;;1.10;99.90;;;;;;4959120;29;20476;-90
2021/11/12 01:52:08;;;;;;;;;;;1.20;99.90;;;;;;4959348;29;20027;-91
2021/11/12 01:57:29;;;;;;;;;;;1.20;99.90;;;;;;4950598;29;20098;-91
2021/11/12 01:59:56;;;;;;;29.30;6.53;;;1.20;99.90;;;;;;4940943;29;19914;-91
2021/11/12 02:02:24;;;;;;;19.50;6.90;;;1.20;99.90;;;;;;4941599;29;20023;-90
2021/11/12 02:04:51;;;;;;;27.43;7.13;;;1.10;99.90;;;;;;4936388;29;20035;-91
2021/11/12 02:07:17;;;;;;;24.17;6.77;;;1.10;99.90;;;;;;4922109;29;20028;-91
2021/11/12 02:10:04;;;;;;;27.67;7.40;;;1.10;99.90;;;;;;4931339;29;20095;-91
2021/11/12 02:12:34;;;;;;;29.83;6.93;;;1.10;99.90;;;;;;4928600;29;20034;-91
2021/11/12 02:15:01;;;;;;;11.37;6.50;;;1.10;99.90;;;;;;4938192;29;20027;-91
2021/11/12 02:17:34;;;;;;;17.07;6.40;;;1.00;99.90;;;;;;4931435;29;20074;-90
2021/11/12 02:20:09;;;;;;;12.93;5.93;;;1.00;99.90;;;;;;4940767;29;20051;-91
2021/11/12 02:22:40;;;;;;;22.73;6.33;;;1.00;99.90;;;;;;4929805;29;20498;-90
2021/11/12 02:25:21;;;;;;;27.20;6.60;;;1.00;99.90;;;;;;4921863;29;20023;-91
2021/11/12 02:27:56;;;;;;;20.87;7.10;;;1.10;99.90;;;;;;4921130;29;20028;-91
2021/11/12 02:30:25;;;;;;;13.40;6.70;;;1.10;99.90;;;;;;4931273;29;20292;-91
2021/11/12 02:33:07;;;;;;;11.07;6.60;;;1.10;99.90;;;;;;4958239;29;20030;-90
2021/11/12 02:35:41;;;;;;;11.73;5.75;;;1.10;99.90;;;;;;4944084;29;20187;-91
2021/11/12 02:38:08;;;;;;;13.13;6.47;;;1.20;99.90;;;;;;4940338;29;20075;-91
2021/11/12 02:40:35;;;;;;;13.63;6.40;;;1.20;99.90;;;;;;4940646;29;20081;-90
2021/11/12 02:43:02;;;;;;;15.10;6.90;;;1.20;99.90;;;;;;4940129;29;20027;-91
2021/11/12 02:45:31;;;;;;;13.00;6.87;;;1.20;99.90;;;;;;4934622;29;20035;-91
2021/11/12 02:47:57;;;;;;;14.90;6.40;;;1.20;99.90;;;;;;4920985;29;20030;-90
2021/11/12 02:50:23;;;;;;;17.00;7.07;;;1.20;99.90;;;;;;4920888;29;20024;-90
2021/11/12 02:53:00;;;;;;;16.13;6.57;;;1.10;99.90;;;;;;4920589;29;20024;-91
2021/11/12 02:55:26;;;;;;;12.30;6.23;;;1.10;99.90;;;;;;4920846;29;20039;-90
2021/11/12 02:57:53;;;;;;;16.50;6.50;;;1.00;99.90;;;;;;4920810;29;20032;-91
2021/11/12 03:00:25;;;;;;;14.60;7.10;;;1.00;99.90;;;;;;4921062;29;20095;-91
2021/11/12 03:02:53;;;;;;;12.82;7.03;;;1.00;99.90;;;;;;4921286;29;20028;-91
2021/11/12 03:05:19;;;;;;;13.47;6.93;;;1.10;99.90;;;;;;4938812;29;20028;-91
2021/11/12 03:07:47;;;;;;;13.37;6.73;;;1.10;99.90;;;;;;4938159;29;20078;-91
2021/11/12 03:10:19;;;;;;;11.87;6.37;;;1.00;99.90;;;;;;4921090;29;20028;-90
2021/11/12 03:12:48;;;;;;;13.10;7.43;;;1.00;99.90;;;;;;4921467;29;20044;-90
2021/11/12 03:15:14;;;;;;;11.83;6.77;;;1.00;99.90;;;;;;4921793;29;20086;-90
2021/11/12 03:17:42;;;;;;;9.97;5.17;;;1.00;99.90;;;;;;4939605;29;20023;-91
2021/11/12 03:20:12;;;;;;;12.77;6.40;;;0.90;99.90;;;;;;4924651;29;20047;-90
2021/11/12 03:22:45;;;;;;;10.07;5.73;;;0.90;99.90;;;;;;4941725;29;20020;-90
2021/11/12 03:28:09;;;;;;;11.60;6.47;;;1.00;99.90;;;;;;4949524;29;20090;-91
2021/11/12 03:49:49;;;;;;;13.73;6.47;;;0.90;99.90;;;;;;4961417;29;20123;-90
2021/11/12 04:00:44;;;;;;;19.77;6.43;;;0.80;99.90;;;;;;4997414;28;20046;-87
2021/11/12 04:03:23;;;;;;;18.50;6.70;;;0.80;99.90;;;;;;4974972;28;20027;-88
2021/11/12 05:13:55;;;;;;;19.43;7.07;;;0.90;99.90;;;;;;4965380;28;20511;-88
2021/11/12 05:47:02;;;;;;;17.97;6.67;;;0.70;99.90;;;;;;4973620;28;20037;-88
2021/11/12 05:51:45;;;;;;;24.80;7.30;;;0.70;99.90;;;;;;4978505;28;20111;-88
2021/11/12 05:56:56;;;;;;;14.27;6.97;;;0.70;99.90;;;;;;4970588;28;20089;-88
2021/11/12 05:59:24;;;;;;;16.40;7.40;;;0.70;99.90;;;;;;4946775;28;20042;-88
2021/11/12 06:01:52;;;;;;;22.03;7.10;;;0.70;99.90;;;;;;4948787;28;20050;-88
2021/11/12 06:04:20;;;;;;;23.90;7.90;;;0.70;99.90;;;;;;4953435;28;20089;-87
2021/11/12 06:06:46;;;;;;;24.43;6.77;;;0.70;99.90;;;;;;4954501;28;20356;-88
2021/11/12 06:09:12;;;;;;;21.43;7.37;;;0.70;99.90;;;;;;4971681;28;20070;-88
2021/11/12 06:11:37;;;;;;;14.73;7.53;;;0.70;99.90;;;;;;4958331;28;20035;-88
2021/11/12 06:14:04;;;;;;;13.37;7.00;;;0.70;99.90;;;;;;4970971;28;20035;-88
2021/11/12 06:16:30;;;;;;;24.10;7.60;;;0.80;99.90;;;;;;4976921;28;20520;-88
2021/11/12 06:18:56;;;;;;;29.13;7.60;;;0.80;99.90;;;;;;4955399;28;20035;-88
2021/11/12 06:21:23;;;;;;;37.20;8.10;;;0.80;99.90;;;;;;4954126;28;20035;-88
2021/11/12 06:23:49;;;;;;;27.00;7.67;;;0.90;99.90;;;;;;4967198;28;20027;-88
2021/11/12 06:26:15;;;;;;;20.10;7.50;;;0.80;99.90;;;;;;4970283;28;20042;-88
2021/11/12 06:28:41;;;;;;;32.20;7.90;;;0.80;99.90;;;;;;4954374;28;20186;-89
2021/11/12 06:31:06;;;;;;;16.60;7.90;;;0.80;99.90;;;;;;4970156;28;20030;-89
2021/11/12 06:33:32;;;;;;;21.60;7.73;;;0.90;99.90;;;;;;4955226;28;20031;-88
2021/11/12 06:35:58;;;;;;;22.93;7.73;;;0.90;99.90;;;;;;4952511;28;20026;-88
2021/11/12 06:38:26;;;;;;;28.00;7.80;;;0.90;99.90;;;;;;4951490;28;20030;-87
2021/11/12 06:40:53;;;;;;;27.60;8.20;;;0.90;99.90;;;;;;4947140;28;20023;-87
2021/11/12 06:43:24;;;;;;;20.10;7.93;;;0.90;99.90;;;;;;4956611;28;20031;-87
2021/11/12 06:51:22;;;;;;;17.87;7.40;;;0.80;99.90;;;;;;4978955;28;20177;-88
2021/11/12 06:53:49;;;;;;;16.17;7.33;;;0.90;99.90;;;;;;4963126;28;20031;-88
2021/11/12 06:56:15;;;;;;;22.37;7.70;;;0.90;99.90;;;;;;4972692;28;20027;-88
2021/11/12 06:58:40;;;;;;;25.70;7.87;;;0.90;99.90;;;;;;4976053;28;20034;-88
2021/11/12 07:01:07;;;;;;;16.10;7.70;;;0.90;99.90;;;;;;4977344;28;20026;-89
2021/11/12 07:03:34;;;;;;;14.80;8.33;;;0.90;99.90;;;;;;4961133;28;20509;-88
2021/11/12 07:06:00;;;;;;;18.87;8.57;;;1.00;99.90;;;;;;4957224;29;20495;-89
2021/11/12 07:08:26;;;;;;;18.23;7.70;;;1.00;99.90;;;;;;4957127;29;20115;-89
2021/11/12 07:10:52;;;;;;;28.73;8.27;;;1.00;99.90;;;;;;4943448;29;20027;-88
2021/11/12 07:13:24;;;;;;;22.70;8.43;;;1.00;99.90;;;;;;4958528;29;20027;-89
2021/11/12 07:15:50;;;;;;;22.20;7.93;;;1.00;99.90;;;;;;4942384;29;20531;-89
2021/11/12 07:18:17;;;;;;;35.47;7.93;;;1.00;99.90;;;;;;4956034;29;20039;-88
2021/11/12 07:20:43;;;;;;;19.53;8.00;;;0.90;99.90;;;;;;4957341;29;20027;-88
2021/11/12 07:23:09;;;;;;;27.33;7.93;;;0.80;99.90;;;;;;4957918;28;20333;-89
2021/11/12 07:25:34;;;;;;;23.10;8.30;;;0.90;99.90;;;;;;4961920;28;20610;-89
2021/11/12 07:28:00;;;;;;;19.60;7.73;;;0.80;99.90;;;;;;4958726;28;20117;-89
2021/11/12 07:30:26;;;;;;;34.53;8.43;;;0.90;99.90;;;;;;4957618;28;20031;-89
2021/11/12 07:32:52;;;;;;;29.10;8.47;;;0.90;99.90;;;;;;4958472;28;20113;-89
2021/11/12 07:35:23;;;;;;;18.43;8.07;;;1.00;99.90;;;;;;4975178;28;20116;-90
2021/11/12 07:37:56;;;;;;;40.27;8.57;;;0.90;99.90;;;;;;4958682;28;20050;-89
2021/11/12 07:40:24;;;;;;;28.57;9.27;;;0.90;99.90;;;;;;4958036;28;20546;-90
2021/11/12 07:43:06;;;;;;;23.60;8.87;;;0.80;99.90;;;;;;4957673;28;20204;-89
2021/11/12 07:45:40;;;;;;;24.35;17.75;;;0.90;99.90;;;;;;4975593;28;20026;-89
2021/11/12 07:48:06;;;;;;;21.07;8.00;;;0.90;99.90;;;;;;4958375;28;20109;-89
2021/11/12 07:50:34;;;;;;;22.43;8.30;;;1.00;99.90;;;;;;4958584;28;20486;-87
2021/11/12 07:53:00;;;;;;;31.47;9.30;;;1.00;99.90;;;;;;4994696;28;20023;-87
2021/11/12 07:55:26;;;;;;;24.63;8.77;;;1.20;99.90;;;;;;5008788;28;20023;-87
2021/11/12 07:57:52;;;;;;;26.30;9.03;;;1.30;99.90;;;;;;4975480;28;20030;-88
2021/11/12 08:00:18;;;;;;;23.07;9.87;;;1.40;99.90;;;;;;4973758;28;20030;-88
2021/11/12 08:02:44;;;;;;;40.63;8.83;;;1.50;99.90;;;;;;4960991;28;20443;-88
2021/11/12 08:05:18;;;;;;;51.27;9.53;;;1.50;99.90;;;;;;4958157;28;20042;-88
2021/11/12 08:07:46;;;;;;;23.37;8.97;;;1.50;99.90;;;;;;4959810;28;20033;-88
2021/11/12 08:10:15;;;;;;;23.17;8.30;;;1.50;99.90;;;;;;4992266;28;20046;-87
2021/11/12 08:12:48;;;;;;;29.63;8.10;;;1.50;99.90;;;;;;4962010;28;20038;-89
2021/11/12 08:17:48;;;;;;;25.37;8.60;;;1.30;99.90;;;;;;4978386;28;20026;-87
2021/11/12 08:20:23;;;;;;;32.93;9.07;;;1.20;99.90;;;;;;4972857;28;20126;-86
2021/11/12 08:23:17;;;;;;;37.37;9.03;;;1.20;99.90;;;;;;4955977;29;20019;-87
2021/11/12 08:25:48;;;;;;;25.47;8.50;;;1.20;99.90;;;;;;4960730;28;20155;-86
2021/11/12 08:33:46;;;;;;;36.50;10.23;;;1.00;99.90;;;;;;4956939;29;20506;-88
2021/11/12 08:41:45;;;;;;;51.40;10.47;;;1.40;99.90;;;;;;4962875;28;20093;-86
2021/11/12 08:47:07;;;;;;;40.87;9.10;;;1.30;99.90;;;;;;4948772;28;20444;-88
2021/11/12 08:49:35;;;;;;;50.73;9.90;;;1.40;99.90;;;;;;4958685;28;20039;-89
2021/11/12 08:52:03;;;;;;;33.60;10.20;;;1.50;99.90;;;;;;4962403;29;20027;-89
2021/11/12 08:54:35;;;;;;;27.23;11.10;;;1.70;99.90;;;;;;4954210;28;20035;-89
2021/11/12 08:57:05;;;;;;;54.28;11.05;;;1.80;99.90;;;;;;4944060;29;20106;-89
2021/11/12 08:59:34;;;;;;;36.07;10.00;;;2.00;99.90;;;;;;4945367;29;20050;-89
2021/11/12 09:02:00;;;;;;;34.63;9.57;;;2.10;99.90;;;;;;4956918;29;20019;-89
2021/11/12 09:04:27;;;;;;;35.60;10.33;;;2.10;99.90;;;;;;4974459;28;20041;-89
2021/11/12 09:06:52;;;;;;;27.10;10.60;;;2.20;99.90;;;;;;4977395;28;20375;-88
2021/11/12 09:09:18;;;;;;;50.47;10.77;;;2.30;99.90;;;;;;4977125;28;20025;-88
2021/11/12 09:11:44;;;;;;;27.23;9.37;;;2.40;99.90;;;;;;4969851;28;20054;-88
2021/11/12 09:14:17;;;;;;;38.93;9.50;;;2.50;99.90;;;;;;4966202;28;20034;-88
2021/11/12 09:16:45;;;;;;;51.10;11.07;;;2.50;99.90;;;;;;4958264;28;20023;-88
2021/11/12 09:19:14;;;;;;;29.90;10.23;;;2.50;99.90;;;;;;4957047;28;20018;-88
2021/11/12 09:21:41;;;;;;;22.17;9.37;;;2.60;99.90;;;;;;4957367;28;20121;-89
2021/11/12 09:24:06;;;;;;;35.17;9.90;;;2.70;99.90;;;;;;4963725;28;20479;-90
2021/11/12 09:27:43;;;;;;;;;;;;;;;;;;;;;
2021/11/12 09:43:27;;;;;;;21.47;10.30;;;3.10;99.90;;;;;;4952714;26;20066;-90
2021/11/12 09:46:34;;;;;;;20.60;9.73;;;3.20;99.90;;;;;;4951259;28;20042;-90
2021/11/12 09:51:35;;;;;;;27.53;10.13;;;3.50;99.90;;;;;;4278348;26;20119;-89
2021/11/12 09:54:11;;;;;;;20.07;9.87;;;3.50;99.90;;;;;;4926826;29;20067;-89
2021/11/12 09:56:44;;;;;;;23.23;9.50;;;3.50;99.90;;;;;;4926943;29;20498;-91
2021/11/12 09:59:23;;;;;;;22.47;10.00;;;3.60;99.90;;;;;;4931336;29;20028;-90
2021/11/12 10:02:06;;;;;;;22.40;9.50;;;3.80;99.90;;;;;;4933589;29;20074;-91
2021/11/12 10:04:55;;;;;;;;;;;3.80;99.90;;;;;;4935366;29;20035;-91
2021/11/12 10:07:48;;;;;;;;;;;;;;;;;;;;;
2021/11/12 10:10:31;;;;;;;23.97;10.43;;;4.10;99.90;;;;;;4943156;29;20115;-90
2021/11/12 10:13:30;;;;;;;;;;;;;;;;;;;;;
2021/11/12 10:19:25;;;;;;;24.40;10.23;;;4.40;99.90;;;;;;4937350;29;20035;-91
2021/11/12 10:22:29;;;;;;;23.60;9.77;;;4.40;99.90;;;;;;4915613;29;20099;-89
2021/11/12 10:25:20;;;;;;;18.93;9.00;;;4.50;99.90;;;;;;4882153;29;20115;-89
2021/11/12 10:28:11;;;;;;;25.10;10.23;;;4.60;99.90;;;;;;4932534;29;20408;-90
2021/11/12 10:30:43;;;;;;;18.90;9.23;;;4.70;99.90;;;;;;4938539;29;20075;-90
2021/11/12 10:33:16;;;;;;;20.45;9.38;;;5.00;99.90;;;;;;4938749;29;20024;-91
2021/11/12 10:36:02;;;;;;;21.13;10.63;;;5.00;99.90;;;;;;4935473;29;20040;-91
2021/11/12 10:38:39;;;;;;;18.07;8.87;;;5.20;99.90;;;;;;4920558;29;20039;-92
2021/11/12 10:41:29;;;;;;;19.70;9.67;;;5.20;99.90;;;;;;4920109;29;20476;-91
2021/11/12 10:44:14;;;;;;;19.33;9.37;;;5.20;99.90;;;;;;4936061;29;20028;-91
2021/11/12 10:46:55;;;;;;;20.77;9.93;;;5.30;99.90;;;;;;4920270;29;20036;-91
2021/11/12 10:49:44;;;;;;;18.40;8.50;;;5.30;99.90;;;;;;4921464;29;20051;-92
2021/11/12 10:52:25;;;;;;;19.80;8.60;;;5.10;99.90;;;;;;4938334;29;20513;-91
2021/11/12 10:55:10;;;;;;;20.20;9.00;;;5.10;99.90;;;;;;4938172;29;20040;-91
2021/11/12 10:57:41;;;;;;;19.20;9.27;;;4.90;99.90;;;;;;4937434;29;20071;-92
2021/11/12 11:00:15;;;;;;;17.03;9.17;;;5.00;99.90;;;;;;4937706;29;20118;-92
2021/11/12 11:03:19;;;;;;;18.87;9.20;;;4.90;99.90;;;;;;4936520;29;20034;-91
2021/11/12 11:06:07;;;;;;;14.97;8.47;;;4.90;99.90;;;;;;4929502;29;20036;-92
2021/11/12 11:09:47;;;;;;;15.70;7.97;;;5.00;99.90;;;;;;4938907;29;20032;-92
2021/11/12 11:16:45;;;;;;;16.33;8.37;;;5.10;99.90;;;;;;4880028;29;20156;-92
2021/11/12 11:37:22;;;;;;;18.63;8.77;;;5.40;99.90;;;;;;4934147;29;20027;-93
2021/11/12 13:24:03;;;;;;;;;;;;;;;;;;;;;
2021/11/12 13:27:29;;;;;;;26.30;12.90;;;7.80;99.90;;;;;;4974381;28;20398;-90
2021/11/12 13:36:20;;;;;;;22.60;11.67;;;8.10;99.90;;;;;;4945103;28;20050;-89
2021/11/12 13:39:35;;;;;;;20.93;11.90;;;8.10;99.90;;;;;;4971108;28;20038;-89
2021/11/12 13:42:33;;;;;;;19.47;10.60;;;8.10;99.90;;;;;;4916951;29;20039;-90
2021/11/12 13:49:13;;;;;;;;;;;;;;;;;;;;;
2021/11/12 13:56:08;;;;;;;21.42;11.05;;;8.20;99.90;;;;;;4948873;28;20106;-89
2021/11/12 13:58:43;;;;;;;20.13;11.07;;;8.10;99.90;;;;;;4854960;29;20040;-90
2021/11/12 14:12:14;;;;;;;23.73;11.60;;;8.00;99.90;;;;;;4831216;29;20052;-90
2021/11/12 14:36:49;;;;;;;26.30;13.10;;;8.10;99.90;;;;;;4991460;28;20080;-90
2021/11/12 14:39:46;;;;;;;26.20;12.80;;;7.70;99.90;;;;;;4971512;28;20062;-90
2021/11/12 14:45:40;;;;;;;31.53;13.53;;;6.80;99.90;;;;;;4971145;28;20057;-92
2021/11/12 14:48:25;;;;;;;32.03;13.17;;;6.40;99.90;;;;;;4955708;28;20807;-90
2021/11/12 14:56:29;;;;;;;25.90;12.80;;;5.40;99.90;;;;;;4978007;28;20487;-91
2021/11/12 14:59:05;;;;;;;28.77;13.25;;;5.20;99.90;;;;;;4951577;28;20675;-92
2021/11/12 15:02:06;;;;;;;29.40;13.27;;;5.10;99.90;;;;;;4957869;28;20098;-91
2021/11/12 15:04:41;;;;;;;32.30;14.30;;;5.00;99.90;;;;;;4958372;28;20031;-90
2021/11/12 15:07:24;;;;;;;30.77;12.90;;;4.90;99.90;;;;;;4961794;28;20506;-91
2021/11/12 15:10:13;;;;;;;27.42;12.65;;;4.90;99.90;;;;;;4960038;28;20045;-92
2021/11/12 15:12:50;;;;;;;33.23;14.83;;;4.80;99.90;;;;;;4960499;28;20054;-91
2021/11/12 15:15:25;;;;;;;27.63;12.80;;;4.80;99.90;;;;;;4952420;28;20513;-91
2021/11/12 15:18:03;;;;;;;29.33;13.33;;;4.70;99.90;;;;;;4953484;28;20034;-91
2021/11/12 15:20:36;;;;;;;28.40;12.07;;;4.60;99.90;;;;;;4975081;28;20082;-89
2021/11/12 15:28:47;;;;;;;30.80;12.47;;;4.30;99.90;;;;;;4975990;28;20042;-91
2021/11/12 15:31:26;;;;;;;35.00;10.83;;;4.10;99.90;;;;;;4966159;28;20022;-89
2021/11/12 15:34:00;;;;;;;25.63;10.77;;;4.00;99.90;;;;;;4965980;28;20053;-91
2021/11/12 15:36:31;;;;;;;31.53;9.73;;;4.00;99.90;;;;;;4972655;28;20020;-91
2021/11/12 15:39:05;;;;;;;37.07;11.50;;;4.00;99.90;;;;;;4955566;28;20389;-90
2021/11/12 15:44:31;;;;;;;19.92;7.45;;;3.80;99.90;;;;;;4971472;28;20424;-91
2021/11/12 15:50:18;;;;;;;32.97;10.87;;;3.80;99.90;;;;;;4968615;28;20102;-90
2021/11/12 16:15:14;;;;;;;27.53;10.13;;;3.50;99.90;;;;;;4980208;28;20503;-90
2021/11/12 16:25:38;;;;;;;23.97;11.53;;;3.50;99.90;;;;;;4983545;28;20056;-90
2021/11/12 16:28:05;;;;;;;31.73;12.37;;;3.60;99.90;;;;;;4960986;28;20030;-91
2021/11/12 16:30:34;;;;;;;33.23;11.33;;;3.60;99.90;;;;;;4962038;28;20030;-91
2021/11/12 16:33:04;;;;;;;77.53;12.17;;;3.60;99.90;;;;;;4956427;28;20442;-89
2021/11/12 16:35:33;;;;;;;54.07;12.23;;;3.60;99.90;;;;;;4952144;28;20019;-90
2021/11/12 16:38:22;;;;;;;39.20;11.70;;;3.60;99.90;;;;;;4953317;28;20031;-90
2021/11/12 16:41:02;;;;;;;64.23;11.90;;;3.60;99.90;;;;;;4950859;28;20039;-89
2021/11/12 16:44:07;;;;;;;56.07;11.17;;;3.50;99.90;;;;;;4947326;28;20111;-90
2021/11/12 16:52:01;;;;;;;35.10;10.90;;;3.50;99.90;;;;;;4970468;28;20447;-90
2021/11/12 16:54:42;;;;;;;54.47;10.47;;;3.40;99.90;;;;;;4955338;28;20105;-90
2021/11/12 17:00:04;;;;;;;93.90;11.20;;;3.50;99.90;;;;;;4972960;28;20202;-90
2021/11/12 17:11:22;;;;;;;39.20;10.67;;;3.30;99.90;;;;;;4945151;28;20077;-90
2021/11/12 17:16:53;;;;;;;25.25;10.38;;;3.50;99.90;;;;;;4970881;28;20041;-90
2021/11/12 17:46:49;;;;;;;73.80;11.17;;;3.20;99.90;;;;;;4949883;28;20303;-90
2021/11/12 18:13:36;;;;;;;31.83;9.20;;;2.70;99.90;;;;;;4940412;28;20041;-88
2021/11/12 21:45:35;;;;;;;30.83;8.80;;;1.80;99.90;;;;;;4975209;28;20395;-89
2021/11/12 21:48:01;;;;;;;33.20;8.80;;;1.80;99.90;;;;;;4957036;28;20019;-89
2021/11/12 21:50:26;;;;;;;37.00;9.40;;;1.80;99.90;;;;;;4974396;28;20102;-89
2021/11/12 21:52:52;;;;;;;27.37;8.53;;;1.80;99.90;;;;;;4957470;28;20023;-89
2021/11/12 21:55:17;;;;;;;26.77;8.30;;;1.70;99.90;;;;;;4973970;28;20041;-89
2021/11/12 21:58:00;;;;;;;30.40;8.67;;;1.70;99.90;;;;;;4964590;28;20066;-88
2021/11/12 22:00:58;;;;;;;36.80;9.13;;;1.70;99.90;;;;;;4937687;29;20024;-90
2021/11/12 22:03:28;;;;;;;41.23;8.93;;;1.70;99.90;;;;;;4944384;28;20027;-90
2021/11/12 22:06:48;;;;;;;41.07;10.40;;;1.80;99.90;;;;;;4956827;28;20018;-90
2021/11/12 22:09:33;;;;;;;29.60;9.37;;;1.90;99.90;;;;;;4954394;28;20399;-91
2021/11/12 22:12:56;;;;;;;64.83;10.47;;;1.90;99.90;;;;;;4937185;29;20046;-90
2021/11/12 22:23:13;;;;;;;44.20;9.10;;;1.90;99.90;;;;;;4954570;28;20066;-89
2021/11/12 22:25:44;;;;;;;27.20;9.03;;;1.80;99.90;;;;;;4954187;28;20027;-90
2021/11/12 22:28:13;;;;;;;32.97;8.73;;;1.80;99.90;;;;;;4953473;29;20027;-89
2021/11/12 22:30:43;;;;;;;59.87;9.80;;;1.80;99.90;;;;;;4952922;28;20035;-89
2021/11/12 22:33:26;;;;;;;38.80;8.67;;;1.90;99.90;;;;;;4951543;28;20023;-89
2021/11/12 22:35:55;;;;;;;54.20;9.90;;;1.80;99.90;;;;;;4954685;28;20051;-89
2021/11/12 22:38:37;;;;;;;19.90;9.17;;;1.80;99.90;;;;;;4952959;28;20059;-89
2021/11/12 22:41:06;;;;;;;48.63;9.82;;;1.90;99.90;;;;;;4956757;28;20035;-89
2021/11/12 22:43:42;;;;;;;30.33;8.50;;;1.90;99.90;;;;;;4948557;28;20140;-89
2021/11/12 22:46:08;;;;;;;26.87;8.80;;;1.80;99.90;;;;;;4957294;28;20490;-89
2021/11/12 22:48:35;;;;;;;74.07;9.93;;;1.80;99.90;;;;;;4962614;28;20023;-90
2021/11/12 22:51:06;;;;;;;54.63;10.20;;;1.90;99.90;;;;;;4953987;28;20039;-90
2021/11/12 22:53:34;;;;;;;48.27;9.00;;;1.90;99.90;;;;;;4958725;28;20031;-90
2021/11/12 22:56:01;;;;;;;37.87;9.10;;;1.80;99.90;;;;;;4958953;28;20031;-89
2021/11/12 22:58:33;;;;;;;74.00;10.43;;;1.80;99.90;;;;;;4959030;28;20118;-89
2021/11/12 23:01:07;;;;;;;50.67;9.05;;;1.90;99.90;;;;;;4954534;28;20062;-90
2021/11/12 23:03:48;;;;;;;81.13;10.07;;;1.90;99.90;;;;;;4968532;28;20064;-90
2021/11/12 23:06:26;;;;;;;68.80;9.47;;;1.70;99.90;;;;;;4957058;28;20034;-90
2021/11/12 23:08:57;;;;;;;76.83;9.90;;;1.70;99.90;;;;;;4948304;28;20027;-89
2021/11/12 23:11:28;;;;;;;26.33;9.60;;;1.80;99.90;;;;;;4958293;28;20055;-89
2021/11/12 23:14:00;;;;;;;39.60;9.03;;;1.80;99.90;;;;;;4958343;28;20046;-89
2021/11/12 23:16:47;;;;;;;63.60;9.90;;;1.90;99.90;;;;;;4955298;28;20031;-89
2021/11/12 23:19:42;;;;;;;69.03;10.67;;;1.90;99.90;;;;;;4951076;28;20471;-89
2021/11/12 23:22:16;;;;;;;58.63;8.70;;;1.80;99.90;;;;;;4959766;28;20038;-90
2021/11/12 23:24:47;;;;;;;161.27;11.93;;;1.80;99.90;;;;;;4960772;28;20499;-89
2021/11/12 23:30:25;;;;;;;82.73;10.87;;;1.80;99.90;;;;;;4958115;28;20045;-89
2021/11/12 23:33:24;;;;;;;154.20;11.97;;;1.90;99.90;;;;;;4952091;28;20038;-89
2021/11/12 23:36:16;;;;;;;171.77;12.40;;;1.90;99.90;;;;;;4956690;28;20031;-89
2021/11/12 23:38:44;;;;;;;65.90;10.15;;;1.90;99.90;;;;;;4961560;28;20115;-88
2021/11/12 23:41:38;;;;;;;97.10;9.93;;;1.90;99.90;;;;;;4958960;28;20037;-89
2021/11/12 23:44:04;;;;;;;92.53;9.60;;;1.90;99.90;;;;;;4960038;28;20049;-89
2021/11/12 23:46:48;;;;;;;50.80;9.03;;;1.90;99.90;;;;;;4957014;28;20087;-89
2021/11/12 23:49:18;;;;;;;79.10;8.60;;;1.90;99.90;;;;;;4953679;28;20031;-88
2021/11/12 23:51:47;;;;;;;91.37;10.60;;;1.90;99.90;;;;;;4954719;28;20026;-88
2021/11/12 23:54:22;;;;;;;74.97;9.53;;;1.80;99.90;;;;;;4959073;28;20023;-88
2021/11/12 23:57:04;;;;;;;123.20;10.23;;;1.80;99.90;;;;;;4956893;28;20055;-88
2021/11/12 23:59:50;;;;;;;41.40;9.95;;;1.70;99.90;;;;;;4954955;28;20036;-87
